< < Back
Terminal Aerodrome Forecast


Current Version              Previous Versions:   1  2  3  4  5  6  7  8  9  

Terminal Aerodrome Forecast

566
FTUS44 KBMX 011700
TAFMGM
TAF
KMGM 011731Z 0118/0218 20004KT P6SM SCT050
     FM020100 19003KT P6SM SCT250=

Latest METAR

669
SAUS80 KWBC 020700
MTRMGM
METAR KMGM 020653Z 00000KT 10SM CLR 25/22 A3005 RMK AO2 SLP171
T02500217


USA.gov is the U.S. government's official web portal to all federal, state and local government web resources and services.